Aérodrome :
LOGIN :

S'inscrire | Disclaimer

   EN    FR    IT 

 










Légende :    VFR   VFR Marginal   IFR   IFR Intensif   IFR Très Intensif
Visi : 
Plafond : 
>= 8 km
>= 3000ft
5 à 8 km
1000 à 3000 ft
1500m à 5 km
500 à 1000 ft
800 à 1500m
200 à 500 ft
< 800m
< 200 ft
Symboles :   Orages  Brouillard  Fortes neiges  Fortes précipitations  Vent > 20 kt
SIGMETs :   Divers  Orages  Givrage  Turbulence  Onde Orograph.  Cendres Volcan.







- Altitude de l'aérodrome : 49 ft
- Code IATA : SEN
- Voir les cartes d'approche


EGMC - Southend

DERNIER METAR :
  • 251420Z 05007KT 6000 NSC 17/13 Q1020

METARs EXPIRÉS :
  • 251350Z 07007KT 7000 NSC 18/13 Q1020
  • 251320Z 10006KT 080V150 7000 NSC 19/14 Q1019
  • 251250Z 10007KT 070V140 8000 NSC 18/15 Q1019
  • 251220Z 10007KT 060V130 8000 NSC 17/14 Q1019
  • 251150Z 09008KT 8000 NSC 18/14 Q1019

TAF TAF EGMC
Valide du 25 à 15h jusqu'au 26 à 00h UTC


251405Z 2515/2524 08005KT 7000 FEW045
PROB30
TEMPO 2515/2518 9999
Pas de NOTAMs connus pour ce terrain.



MET'MAP, la Météo Aéronautique d'un coup d'oeil ! - Copyright ORBIFLY Décembre 2007 - Disclaimer

ORBIFLY MET'MAP TEAM :

Programmation & Développement : Alexandra Zaïnal
Conception & Développement : Baudouin d'Aumeries
Co-Programmation & Développement : Marc-Olivier Méhu
Soutien technique & logistique : Manuel Goepfert

Contact : metmap@orbifly.com




SOURCES & CREDITS :

   NOAA